Time;durP1;ratioP1;P1;durP2;ratioP2;P2;SDS_P1;SDS_P2;PMS_P1;PMS_P2;Temp;Humidity;BMP_temperature;BMP_pressure;BME280_temperature;BME280_humidity;BME280_pressure;Samples;Min_cycle;Max_cycle;Signal;HPM_P1;HPM_P2
2022/11/09 00:02:23;;;;;;;;;;;;;;;;;;5087752;28;19908;-40
2022/11/09 00:04:49;;;;;;;;;;;;;;;;;;5092453;28;20393;-40
2022/11/09 00:07:15;;;;;;;;;;;;;;;;;;5092664;28;19904;-40
2022/11/09 00:09:40;;;;;;;;;;;;;;;;;;5093187;28;19904;-40
2022/11/09 00:12:06;;;;;;;;;;;;;;;;;;5091120;28;19912;-40
2022/11/09 00:14:32;;;;;;;;;;;;;;;;;;5088603;28;20299;-40
2022/11/09 00:16:58;;;;;;;;;;;;;;;;;;5078798;28;19908;-40
2022/11/09 00:19:24;;;;;;;;;;;;;;;;;;5072525;28;20375;-40
2022/11/09 00:21:50;;;;;;;;;;;;;;;;;;5072062;28;20011;-40
2022/11/09 00:24:16;;;;;;;;;;;;;;;;;;5078549;28;20402;-40
2022/11/09 00:26:42;;;;;;;;;;;;;;;;;;5092899;28;19904;-40
2022/11/09 00:29:08;;;;;;;;;;;;;;;;;;5092186;28;19955;-40
2022/11/09 00:31:33;;;;;;;;;;;;;;;;;;5091689;28;19999;-40
2022/11/09 00:33:59;;;;;;;;;;;;;;;;;;5091631;28;19929;-40
2022/11/09 00:36:25;;;;;;;;;;;;;;;;;;5092035;28;19911;-40
2022/11/09 00:38:51;;;;;;;;;;;;;;;;;;5092059;28;19923;-40
2022/11/09 00:41:17;;;;;;;;;;;;;;;;;;5091981;28;19907;-40
2022/11/09 00:43:43;;;;;;;;;;;;;;;;;;5076792;28;19912;-40
2022/11/09 00:46:09;;;;;;;;;;;;;;;;;;5071610;28;19904;-40
2022/11/09 00:48:35;;;;;;;;;;;;;;;;;;5071618;28;19909;-40
2022/11/09 00:51:00;;;;;;;;;;;;;;;;;;5071723;28;19950;-40
2022/11/09 00:53:26;;;;;;;;;;;;;;;;;;5085512;28;19919;-40
2022/11/09 00:55:52;;;;;;;;;;;;;;;;;;5091774;28;19946;-40
2022/11/09 06:05:16;;;;;;;;;;;;;;;;;;5092850;28;19936;-40
2022/11/09 06:07:42;;;;;;;;;;;;;;;;;;5092664;28;19912;-40
2022/11/09 06:10:07;;;;;;;;;;;;;;;;;;5091003;28;19927;-40
2022/11/09 06:12:33;;;;;;;;;;;;;;;;;;5087880;28;19908;-40
2022/11/09 06:14:59;;;;;;;;;;;;;;;;;;5076583;28;20257;-40
2022/11/09 06:17:25;;;;;;;;;;;;;;;;;;5072428;28;19917;-40
2022/11/09 06:19:51;;;;;;;;;;;;;;;;;;5073353;28;19912;-40
2022/11/09 06:22:17;;;;;;;;;;;;;;;;;;5077300;28;19920;-40
2022/11/09 06:24:43;;;;;;;;;;;;;;;;;;5084932;28;19919;-40
2022/11/09 06:27:09;;;;;;;;;;;;;;;;;;5101780;28;19904;-40
2022/11/09 06:29:35;;;;;;;;;;;;;;;;;;5096391;28;20409;-40
2022/11/09 06:32:01;;;;;;;;;;;;;;;;;;5084012;28;19908;-40
2022/11/09 06:34:27;;;;;;;;;;;;;;;;;;5073896;28;19919;-41
2022/11/09 06:36:53;;;;;;;;;;;;;;;;;;5100207;28;19930;-41
2022/11/09 06:39:19;;;;;;;;;;;;;;;;;;5111118;28;19908;-40
2022/11/09 06:41:45;;;;;;;;;;;;;;;;;;5111032;28;20332;-40
2022/11/09 06:44:11;;;;;;;;;;;;;;;;;;5097741;28;19918;-41
2022/11/09 06:46:37;;;;;;;;;;;;;;;;;;5090741;28;19904;-41
2022/11/09 06:49:03;;;;;;;;;;;;;;;;;;5091018;28;19907;-41
2022/11/09 06:51:29;;;;;;;;;;;;;;;;;;5090835;28;19915;-40
2022/11/09 06:53:54;;;;;;;;;;;;;;;;;;5088876;28;19914;-40
2022/11/09 06:56:20;;;;;;;;;;;;;;;;;;5077984;28;19908;-40
2022/11/09 06:58:46;;;;;;;;;;;;;;;;;;5070376;28;19908;-41
2022/11/09 07:01:12;;;;;;;;;;;;;;;;;;5059470;28;20318;-40
2022/11/09 07:03:38;;;;;;;;;;;;;;;;;;5089343;28;19923;-41
2022/11/09 07:06:04;;;;;;;;;;;;;;;;;;5090167;28;19951;-40
2022/11/09 07:08:30;;;;;;;;;;;;;;;;;;5090540;28;19904;-41
2022/11/09 07:10:56;;;;;;;;;;;;;;;;;;5081077;28;19915;-41
2022/11/09 07:13:22;;;;;;;;;;;;;;;;;;5070136;28;19991;-41
2022/11/09 07:15:48;;;;;;;;;;;;;;;;;;5070002;28;19982;-41
2022/11/09 07:18:14;;;;;;;;;;;;;;;;;;5069676;28;19912;-41
2022/11/09 07:20:40;;;;;;;;;;;;;;;;;;5074883;28;19914;-41
2022/11/09 07:23:06;;;;;;;;;;;;;;;;;;5089960;28;19994;-41
2022/11/09 07:25:32;;;;;;;;;;;;;;;;;;5078351;28;19943;-41
2022/11/09 07:27:58;;;;;;;;;;;;;;;;;;5070046;28;19997;-41
2022/11/09 07:30:24;;;;;;;;;;;;;;;;;;5070060;28;20359;-41
2022/11/09 07:32:50;;;;;;;;;;;;;;;;;;5085115;28;19931;-41
2022/11/09 07:35:16;;;;;;;;;;;;;;;;;;5073320;28;19934;-41
2022/11/09 07:37:42;;;;;;;;;;;;;;;;;;5090194;28;20084;-41
2022/11/09 07:40:08;;;;;;;;;;;;;;;;;;5089771;28;19947;-41
2022/11/09 07:42:34;;;;;;;;;;;;;;;;;;5089901;28;19907;-41
2022/11/09 07:44:59;;;;;;;;;;;;;;;;;;5088387;28;19912;-41
2022/11/09 07:47:25;;;;;;;;;;;;;;;;;;5088987;28;19957;-41
2022/11/09 07:49:51;;;;;;;;;;;;;;;;;;5089600;28;19991;-42
2022/11/09 07:52:17;;;;;;;;;;;;;;;;;;5087964;28;19908;-42
2022/11/09 07:54:43;;;;;;;;;;;;;;;;;;5075637;28;19916;-42
2022/11/09 07:57:10;;;;;;;;;;;;;;;;;;5073763;28;19970;-42
2022/11/09 07:59:36;;;;;;;;;;;;;;;;;;5086931;28;19912;-41
2022/11/09 08:02:02;;;;;;;;;;;;;;;;;;5088577;28;19961;-41
2022/11/09 08:04:28;;;;;;;;;;;;;;;;;;5078867;28;19959;-42
2022/11/09 08:06:54;;;;;;;;;;;;;;;;;;5075641;28;19962;-41
2022/11/09 08:09:20;;;;;;;;;;;;;;;;;;5071299;28;19909;-41
2022/11/09 08:11:46;;;;;;;;;;;;;;;;;;5112316;28;19919;-42
2022/11/09 08:14:12;;;;;;;;;;;;;;;;;;5112732;28;19957;-41
2022/11/09 08:16:38;;;;;;;;;;;;;;;;;;5112191;28;19903;-41
2022/11/09 08:19:03;;;;;;;;;;;;;;;;;;5104344;28;19916;-41
2022/11/09 08:21:29;;;;;;;;;;;;;;;;;;5091845;28;19918;-42
2022/11/09 08:23:56;;;;;;;;;;;;;;;;;;5111386;28;19953;-42
2022/11/09 08:26:22;;;;;;;;;;;;;;;;;;5111845;28;19907;-41
2022/11/09 08:28:48;;;;;;;;;;;;;;;;;;5112005;28;19911;-41
2022/11/09 08:31:14;;;;;;;;;;;;;;;;;;5112264;28;20010;-41
2022/11/09 08:33:40;;;;;;;;;;;;;;;;;;5084230;28;19916;-41
2022/11/09 08:36:06;;;;;;;;;;;;;;;;;;5072543;28;19978;-41
2022/11/09 08:38:32;;;;;;;;;;;;;;;;;;5072928;28;19909;-41
2022/11/09 08:40:58;;;;;;;;;;;;;;;;;;5089308;28;19907;-41
2022/11/09 08:43:24;;;;;;;;;;;;;;;;;;5073920;28;19916;-41
2022/11/09 08:45:50;;;;;;;;;;;;;;;;;;5070786;28;19911;-41
2022/11/09 08:48:16;;;;;;;;;;;;;;;;;;5076481;28;19943;-41
2022/11/09 08:50:42;;;;;;;;;;;;;;;;;;5091130;28;19931;-41
2022/11/09 08:53:08;;;;;;;;;;;;;;;;;;5090894;28;19908;-41
2022/11/09 08:55:34;;;;;;;;;;;;;;;;;;5088675;28;19951;-41
2022/11/09 08:58:00;;;;;;;;;;;;;;;;;;5082639;28;20027;-41
2022/11/09 09:00:26;;;;;;;;;;;;;;;;;;5070872;28;19916;-41
2022/11/09 09:02:52;;;;;;;;;;;;;;;;;;5075429;28;19913;-41
2022/11/09 09:05:18;;;;;;;;;;;;;;;;;;5070206;28;19915;-41
2022/11/09 09:07:44;;;;;;;;;;;;;;;;;;5070914;28;19912;-41
2022/11/09 09:10:09;;;;;;;;;;;;;;;;;;5070750;28;20381;-42
2022/11/09 09:12:35;;;;;;;;;;;;;;;;;;5070552;28;19974;-42
2022/11/09 09:15:01;;;;;;;;;;;;;;;;;;5076466;28;19937;-41
2022/11/09 09:17:27;;;;;;;;;;;;;;;;;;5089428;28;19911;-42
2022/11/09 09:19:53;;;;;;;;;;;;;;;;;;5086488;28;19927;-42
2022/11/09 09:22:19;;;;;;;;;;;;;;;;;;5077901;28;20379;-42
2022/11/09 09:24:45;;;;;;;;;;;;;;;;;;5070444;28;20341;-42
2022/11/09 09:27:12;;;;;;;;;;;;;;;;;;5089774;28;19912;-42
2022/11/09 09:29:38;;;;;;;;;;;;;;;;;;5089057;28;19956;-42
2022/11/09 09:32:04;;;;;;;;;;;;;;;;;;5089133;28;19915;-42
2022/11/09 09:34:30;;;;;;;;;;;;;;;;;;5104963;28;19951;-42
2022/11/09 09:36:56;;;;;;;;;;;;;;;;;;5084933;28;20440;-41
2022/11/09 09:39:22;;;;;;;;;;;;;;;;;;5072590;28;19915;-42
2022/11/09 09:41:48;;;;;;;;;;;;;;;;;;5069979;28;19904;-42
2022/11/09 09:44:14;;;;;;;;;;;;;;;;;;5070096;28;20016;-42
2022/11/09 09:46:40;;;;;;;;;;;;;;;;;;5069443;28;19908;-42
2022/11/09 09:49:06;;;;;;;;;;;;;;;;;;5068333;28;19908;-41
2022/11/09 09:51:32;;;;;;;;;;;;;;;;;;5068408;28;19962;-41
2022/11/09 09:53:58;;;;;;;;;;;;;;;;;;5068456;28;19940;-42
2022/11/09 09:56:25;;;;;;;;;;;;;;;;;;5070633;28;20341;-41
2022/11/09 09:58:50;;;;;;;;;;;;;;;;;;5087494;28;19991;-42
2022/11/09 10:01:18;;;;;;;;;;;;;;;;;;5084854;28;20023;-42
2022/11/09 10:03:44;;;;;;;;;;;;;;;;;;5071507;28;19913;-41
2022/11/09 10:06:10;;;;;;;;;;;;;;;;;;5085072;28;19939;-41
2022/11/09 10:08:37;;;;;;;;;;;;;;;;;;5067949;28;20356;-41
2022/11/09 10:11:03;;;;;;;;;;;;;;;;;;5080484;28;20379;-41
2022/11/09 10:13:29;;;;;;;;;;;;;;;;;;5085952;28;19908;-41
2022/11/09 10:15:54;;;;;;;;;;;;;;;;;;5084315;28;20015;-41
2022/11/09 10:18:20;;;;;;;;;;;;;;;;;;5073756;28;19904;-41
2022/11/09 10:20:47;;;;;;;;;;;;;;;;;;5067594;28;20002;-41
2022/11/09 10:23:13;;;;;;;;;;;;;;;;;;5076566;28;19908;-41
2022/11/09 10:25:39;;;;;;;;;;;;;;;;;;5074738;28;19919;-41
2022/11/09 10:28:05;;;;;;;;;;;;;;;;;;5089010;28;19908;-41
2022/11/09 10:30:31;;;;;;;;;;;;;;;;;;5080169;28;19912;-41
2022/11/09 10:32:57;;;;;;;;;;;;;;;;;;5068647;28;20276;-41
2022/11/09 10:35:23;;;;;;;;;;;;;;;;;;5069205;28;19951;-42
2022/11/09 10:37:49;;;;;;;;;;;;;;;;;;5074212;28;19916;-41
2022/11/09 10:40:18;;;;;;;;;;;;;;;;;;5086415;28;19912;-41
2022/11/09 10:42:44;;;;;;;;;;;;;;;;;;5087696;28;20341;-41
2022/11/09 10:45:11;;;;;;;;;;;;;;;;;;5087342;28;19919;-42
2022/11/09 10:47:37;;;;;;;;;;;;;;;;;;5072415;28;19919;-42
2022/11/09 10:50:03;;;;;;;;;;;;;;;;;;5067024;28;19904;-41
2022/11/09 10:52:30;;;;;;;;;;;;;;;;;;5067177;28;19912;-42
2022/11/09 10:54:56;;;;;;;;;;;;;;;;;;5078803;28;20581;-41
2022/11/09 10:57:22;;;;;;;;;;;;;;;;;;5087875;28;19904;-41
2022/11/09 10:59:49;;;;;;;;;;;;;;;;;;5087526;28;19947;-41
2022/11/09 11:02:15;;;;;;;;;;;;;;;;;;5086713;28;20382;-41
2022/11/09 11:04:42;;;;;;;;;;;;;;;;;;5070401;28;19912;-41
2022/11/09 11:07:08;;;;;;;;;;;;;;;;;;5079957;28;20424;-42
2022/11/09 11:09:34;;;;;;;;;;;;;;;;;;5076864;28;19987;-41
2022/11/09 11:11:59;;;;;;;;;;;;;;;;;;5083494;28;19912;-41
2022/11/09 11:14:25;;;;;;;;;;;;;;;;;;5069755;28;19955;-41
2022/11/09 11:16:51;;;;;;;;;;;;;;;;;;5083643;28;19908;-41
2022/11/09 11:19:17;;;;;;;;;;;;;;;;;;5080976;28;19908;-41
2022/11/09 11:21:43;;;;;;;;;;;;;;;;;;5075429;28;19915;-41
2022/11/09 11:24:09;;;;;;;;;;;;;;;;;;5090716;28;19956;-41
2022/11/09 11:26:35;;;;;;;;;;;;;;;;;;5072305;28;19913;-41
2022/11/09 11:29:01;;;;;;;;;;;;;;;;;;5077899;28;20290;-41
2022/11/09 11:31:27;;;;;;;;;;;;;;;;;;5072705;28;19908;-41
2022/11/09 11:33:53;;;;;;;;;;;;;;;;;;5068625;28;19904;-42
2022/11/09 11:36:19;;;;;;;;;;;;;;;;;;5068817;28;19912;-41
2022/11/09 11:38:45;;;;;;;;;;;;;;;;;;5079754;28;20013;-41
2022/11/09 11:41:11;;;;;;;;;;;;;;;;;;5071201;28;19991;-41
2022/11/09 11:43:37;;;;;;;;;;;;;;;;;;5080744;28;20391;-41
2022/11/09 11:46:03;;;;;;;;;;;;;;;;;;5087753;28;19915;-41
2022/11/09 11:48:29;;;;;;;;;;;;;;;;;;5087738;28;19908;-41
2022/11/09 11:50:55;;;;;;;;;;;;;;;;;;5087762;28;19974;-39
2022/11/09 11:53:21;;;;;;;;;;;;;;;;;;5087316;28;19973;-39
2022/11/09 11:55:47;;;;;;;;;;;;;;;;;;5075267;28;19912;-38
2022/11/09 11:58:13;;;;;;;;;;;;;;;;;;5082736;28;20389;-39
2022/11/09 12:00:39;;;;;;;;;;;;;;;;;;5081254;28;19923;-41
2022/11/09 12:03:05;;;;;;;;;;;;;;;;;;5077883;28;19908;-41
2022/11/09 12:05:31;;;;;;;;;;;;;;;;;;5081516;28;20003;-42
2022/11/09 12:07:58;;;;;;;;;;;;;;;;;;5072873;28;20392;-41
2022/11/09 12:10:24;;;;;;;;;;;;;;;;;;5079015;28;19908;-41
2022/11/09 12:12:50;;;;;;;;;;;;;;;;;;5084995;28;20591;-41
2022/11/09 12:15:16;;;;;;;;;;;;;;;;;;5091486;28;19908;-41
2022/11/09 12:17:42;;;;;;;;;;;;;;;;;;5081442;28;19912;-41
2022/11/09 12:20:08;;;;;;;;;;;;;;;;;;5092195;28;19957;-41
2022/11/09 12:22:34;;;;;;;;;;;;;;;;;;5090110;28;19908;-41
2022/11/09 12:25:00;;;;;;;;;;;;;;;;;;5087215;28;19985;-42
2022/11/09 12:27:26;;;;;;;;;;;;;;;;;;5076939;28;19912;-42
2022/11/09 12:29:51;;;;;;;;;;;;;;;;;;5091543;28;20006;-43
2022/11/09 12:32:17;;;;;;;;;;;;;;;;;;5090418;28;19924;-44
2022/11/09 12:34:43;;;;;;;;;;;;;;;;;;5084064;28;19907;-43
2022/11/09 12:37:09;;;;;;;;;;;;;;;;;;5081103;28;19909;-44
2022/11/09 12:39:35;;;;;;;;;;;;;;;;;;5071371;28;19966;-45
2022/11/09 12:42:01;;;;;;;;;;;;;;;;;;5076578;28;19916;-44
2022/11/09 12:44:27;;;;;;;;;;;;;;;;;;5084626;28;19966;-44
2022/11/09 12:46:53;;;;;;;;;;;;;;;;;;5087665;28;20052;-44
2022/11/09 12:49:19;;;;;;;;;;;;;;;;;;5086808;28;19915;-44
2022/11/09 12:51:45;;;;;;;;;;;;;;;;;;5086642;28;19915;-44
2022/11/09 12:54:11;;;;;;;;;;;;;;;;;;5077460;28;19934;-45
2022/11/09 12:56:38;;;;;;;;;;;;;;;;;;5086626;28;19919;-45
2022/11/09 12:59:04;;;;;;;;;;;;;;;;;;5081777;28;20004;-45
2022/11/09 13:01:29;;;;;;;;;;;;;;;;;;5073908;28;19951;-45
2022/11/09 13:03:55;;;;;;;;;;;;;;;;;;5069298;28;20292;-43
2022/11/09 13:06:21;;;;;;;;;;;;;;;;;;5085348;28;19915;-45
2022/11/09 13:08:48;;;;;;;;;;;;;;;;;;5084583;28;19908;-44
2022/11/09 13:11:14;;;;;;;;;;;;;;;;;;5088442;28;20734;-44
2022/11/09 13:13:40;;;;;;;;;;;;;;;;;;5067786;28;19908;-43
2022/11/09 13:16:06;;;;;;;;;;;;;;;;;;5086531;28;19943;-44
2022/11/09 13:18:32;;;;;;;;;;;;;;;;;;5088139;28;20282;-43
2022/11/09 13:20:58;;;;;;;;;;;;;;;;;;5087587;28;19911;-43
2022/11/09 13:23:23;;;;;;;;;;;;;;;;;;5087608;28;19991;-43
2022/11/09 13:25:51;;;;;;;;;;;;;;;;;;5087653;28;20462;-43
2022/11/09 13:28:17;;;;;;;;;;;;;;;;;;5087695;28;19998;-44
2022/11/09 13:30:43;;;;;;;;;;;;;;;;;;5087812;28;19996;-45
2022/11/09 13:33:09;;;;;;;;;;;;;;;;;;5088449;28;20299;-43
2022/11/09 13:35:35;;;;;;;;;;;;;;;;;;5087521;28;19958;-43
2022/11/09 13:38:01;;;;;;;;;;;;;;;;;;5087320;28;19989;-43
2022/11/09 13:40:27;;;;;;;;;;;;;;;;;;5087684;28;20461;-43
2022/11/09 13:42:53;;;;;;;;;;;;;;;;;;5087476;28;20433;-42
2022/11/09 13:45:19;;;;;;;;;;;;;;;;;;5085240;28;20395;-42
2022/11/09 13:47:44;;;;;;;;;;;;;;;;;;5085799;28;19907;-42
2022/11/09 13:50:10;;;;;;;;;;;;;;;;;;5089449;28;19984;-43
2022/11/09 13:52:36;;;;;;;;;;;;;;;;;;5088374;28;20010;-42
2022/11/09 13:55:03;;;;;;;;;;;;;;;;;;5080815;28;20407;-43
2022/11/09 13:57:29;;;;;;;;;;;;;;;;;;5103835;28;19958;-43
2022/11/09 13:59:55;;;;;;;;;;;;;;;;;;5085853;28;19959;-42
2022/11/09 14:02:21;;;;;;;;;;;;;;;;;;5072691;28;20324;-42
2022/11/09 14:04:47;;;;;;;;;;;;;;;;;;5083194;28;19957;-42
2022/11/09 14:07:13;;;;;;;;;;;;;;;;;;5089067;28;21319;-42
2022/11/09 14:09:39;;;;;;;;;;;;;;;;;;5057591;28;19924;-42
2022/11/09 14:12:05;;;;;;;;;;;;;;;;;;5058398;28;20681;-42
2022/11/09 14:14:31;;;;;;;;;;;;;;;;;;5056507;28;19935;-42
2022/11/09 14:16:58;;;;;;;;;;;;;;;;;;5065474;28;19916;-42
2022/11/09 14:19:23;;;;;;;;;;;;;;;;;;5055817;28;19912;-42
2022/11/09 14:21:50;;;;;;;;;;;;;;;;;;5057151;28;20326;-42
2022/11/09 14:24:16;;;;;;;;;;;;;;;;;;5072367;28;19916;-42
2022/11/09 14:26:42;;;;;;;;;;;;;;;;;;5076968;28;20006;-42
2022/11/09 14:29:08;;;;;;;;;;;;;;;;;;5088574;28;19911;-42
2022/11/09 14:31:35;;;;;;;;;;;;;;;;;;5084054;28;19908;-42
2022/11/09 14:34:01;;;;;;;;;;;;;;;;;;5073864;28;19920;-42
2022/11/09 14:36:27;;;;;;;;;;;;;;;;;;5085052;28;19915;-42
2022/11/09 14:38:56;;;;;;;;;;;;;;;;;;5077176;28;19996;-41
2022/11/09 14:41:24;;;;;;;;;;;;;;;;;;5072314;28;19912;-42
2022/11/09 14:43:50;;;;;;;;;;;;;;;;;;5069954;28;20235;-41
2022/11/09 14:46:16;;;;;;;;;;;;;;;;;;5064736;28;19950;-42
2022/11/09 14:48:42;;;;;;;;;;;;;;;;;;5072381;28;19912;-42
2022/11/09 14:51:12;;;;;;;;;;;;;;;;;;5067852;28;20636;-43
2022/11/09 14:53:38;;;;;;;;;;;;;;;;;;5068344;28;19920;-41
2022/11/09 14:56:04;;;;;;;;;;;;;;;;;;5080934;28;19950;-41
2022/11/09 14:58:30;;;;;;;;;;;;;;;;;;5078166;28;19915;-41
2022/11/09 15:00:56;;;;;;;;;;;;;;;;;;5067442;28;19908;-41
2022/11/09 15:03:22;;;;;;;;;;;;;;;;;;5067288;28;19935;-42
2022/11/09 15:05:47;;;;;;;;;;;;;;;;;;5066596;28;19916;-42
2022/11/09 15:08:13;;;;;;;;;;;;;;;;;;5067290;28;19908;-41
2022/11/09 15:10:39;;;;;;;;;;;;;;;;;;5068046;28;20624;-41
2022/11/09 15:13:05;;;;;;;;;;;;;;;;;;5067257;28;19908;-42
2022/11/09 15:15:31;;;;;;;;;;;;;;;;;;5067432;28;19916;-42
2022/11/09 15:17:57;;;;;;;;;;;;;;;;;;5067103;28;19985;-42
2022/11/09 15:20:23;;;;;;;;;;;;;;;;;;5066481;28;20584;-41
2022/11/09 15:22:49;;;;;;;;;;;;;;;;;;5067119;28;19940;-41
2022/11/09 15:25:15;;;;;;;;;;;;;;;;;;5085182;28;19912;-41
2022/11/09 15:27:41;;;;;;;;;;;;;;;;;;5099346;28;19971;-41
2022/11/09 15:30:07;;;;;;;;;;;;;;;;;;5087868;28;19908;-42
2022/11/09 15:32:34;;;;;;;;;;;;;;;;;;5087194;28;19957;-41
2022/11/09 15:35:00;;;;;;;;;;;;;;;;;;5086915;28;19908;-41
2022/11/09 15:37:26;;;;;;;;;;;;;;;;;;5072875;28;19909;-41
2022/11/09 15:39:52;;;;;;;;;;;;;;;;;;5066931;28;19946;-41
2022/11/09 15:42:19;;;;;;;;;;;;;;;;;;5066826;28;19905;-41
2022/11/09 15:44:45;;;;;;;;;;;;;;;;;;5077841;28;20311;-41
2022/11/09 15:47:11;;;;;;;;;;;;;;;;;;5098314;28;19904;-41
2022/11/09 15:49:37;;;;;;;;;;;;;;;;;;5085955;28;19999;-41
2022/11/09 15:52:03;;;;;;;;;;;;;;;;;;5068041;28;19913;-41
2022/11/09 15:54:31;;;;;;;;;;;;;;;;;;5066504;28;19912;-41
2022/11/09 15:56:57;;;;;;;;;;;;;;;;;;5066751;28;19909;-41
2022/11/09 15:59:23;;;;;;;;;;;;;;;;;;5075577;28;19907;-42
2022/11/09 16:01:49;;;;;;;;;;;;;;;;;;5083815;28;19940;-41
2022/11/09 16:04:15;;;;;;;;;;;;;;;;;;5076680;28;19930;-41
2022/11/09 16:06:41;;;;;;;;;;;;;;;;;;5089238;28;19916;-41
2022/11/09 16:09:07;;;;;;;;;;;;;;;;;;5067226;28;19942;-41
2022/11/09 16:11:33;;;;;;;;;;;;;;;;;;5066697;28;19987;-41
2022/11/09 16:13:59;;;;;;;;;;;;;;;;;;5069896;28;19954;-41
2022/11/09 16:16:25;;;;;;;;;;;;;;;;;;5099071;28;19912;-41
2022/11/09 16:18:51;;;;;;;;;;;;;;;;;;5086485;28;19908;-41
2022/11/09 16:21:17;;;;;;;;;;;;;;;;;;5086762;28;19969;-41
2022/11/09 16:23:43;;;;;;;;;;;;;;;;;;5086002;28;19919;-41
2022/11/09 16:26:09;;;;;;;;;;;;;;;;;;5083728;28;19913;-41
2022/11/09 16:28:36;;;;;;;;;;;;;;;;;;5077459;28;19904;-41
2022/11/09 16:31:02;;;;;;;;;;;;;;;;;;5082599;28;20450;-41
2022/11/09 16:33:28;;;;;;;;;;;;;;;;;;5074107;28;19912;-41
2022/11/09 16:35:56;;;;;;;;;;;;;;;;;;5087689;28;20003;-41
2022/11/09 16:38:22;;;;;;;;;;;;;;;;;;5110780;28;20372;-42
2022/11/09 16:40:48;;;;;;;;;;;;;;;;;;5091858;28;19912;-41
2022/11/09 16:43:14;;;;;;;;;;;;;;;;;;5069989;28;19944;-41
2022/11/09 16:45:40;;;;;;;;;;;;;;;;;;5071616;28;19966;-41
2022/11/09 16:48:06;;;;;;;;;;;;;;;;;;5083632;28;19990;-41
2022/11/09 16:50:32;;;;;;;;;;;;;;;;;;5074217;28;19992;-41
2022/11/09 16:52:58;;;;;;;;;;;;;;;;;;5078435;28;20007;-41
2022/11/09 16:55:24;;;;;;;;;;;;;;;;;;5083419;28;19908;-42
2022/11/09 16:57:49;;;;;;;;;;;;;;;;;;5087170;28;19907;-41
2022/11/09 17:00:18;;;;;;;;;;;;;;;;;;5072113;28;19935;-41
2022/11/09 17:02:44;;;;;;;;;;;;;;;;;;5095710;28;19908;-42
2022/11/09 17:05:10;;;;;;;;;;;;;;;;;;5089221;28;19915;-42
2022/11/09 17:07:39;;;;;;;;;;;;;;;;;;5080337;28;19912;-41
2022/11/09 17:10:05;;;;;;;;;;;;;;;;;;5089828;28;20383;-41
2022/11/09 17:12:31;;;;;;;;;;;;;;;;;;5077654;28;19912;-41
2022/11/09 17:14:57;;;;;;;;;;;;;;;;;;5072523;28;20615;-41
2022/11/09 17:17:23;;;;;;;;;;;;;;;;;;5068992;28;19912;-42
2022/11/09 17:19:50;;;;;;;;;;;;;;;;;;5073481;28;19908;-42
2022/11/09 17:22:16;;;;;;;;;;;;;;;;;;5070334;28;19908;-41
2022/11/09 17:24:42;;;;;;;;;;;;;;;;;;5074776;28;19920;-41
2022/11/09 17:27:08;;;;;;;;;;;;;;;;;;5073914;28;19956;-41
2022/11/09 17:29:36;;;;;;;;;;;;;;;;;;5089310;28;20415;-41
2022/11/09 17:32:02;;;;;;;;;;;;;;;;;;5079385;28;19912;-41
2022/11/09 17:34:29;;;;;;;;;;;;;;;;;;5068948;28;19944;-41
2022/11/09 17:36:55;;;;;;;;;;;;;;;;;;5071653;28;19915;-41
2022/11/09 17:39:21;;;;;;;;;;;;;;;;;;5072495;28;19912;-41
2022/11/09 17:41:47;;;;;;;;;;;;;;;;;;5073850;28;20349;-41
2022/11/09 17:44:13;;;;;;;;;;;;;;;;;;5102070;28;20019;-41
2022/11/09 17:46:39;;;;;;;;;;;;;;;;;;5094390;28;19919;-41
2022/11/09 17:49:05;;;;;;;;;;;;;;;;;;5089633;28;19963;-41
2022/11/09 17:51:31;;;;;;;;;;;;;;;;;;5080677;28;19912;-41
2022/11/09 17:53:58;;;;;;;;;;;;;;;;;;5075175;28;19911;-41
2022/11/09 17:56:24;;;;;;;;;;;;;;;;;;5086735;28;19908;-41
2022/11/09 17:58:50;;;;;;;;;;;;;;;;;;5080130;28;19909;-41
2022/11/09 18:01:16;;;;;;;;;;;;;;;;;;5073733;28;19951;-41
2022/11/09 18:03:42;;;;;;;;;;;;;;;;;;5086167;28;20010;-41
2022/11/09 18:06:08;;;;;;;;;;;;;;;;;;5087044;28;19919;-41
2022/11/09 18:08:34;;;;;;;;;;;;;;;;;;5076095;28;20371;-41
2022/11/09 18:11:00;;;;;;;;;;;;;;;;;;5070087;28;20372;-41
2022/11/09 18:13:26;;;;;;;;;;;;;;;;;;5070154;28;19908;-41
2022/11/09 18:15:52;;;;;;;;;;;;;;;;;;5069563;28;19911;-41
2022/11/09 18:18:19;;;;;;;;;;;;;;;;;;5069584;28;19995;-41
2022/11/09 18:20:44;;;;;;;;;;;;;;;;;;5069112;28;19904;-41
2022/11/09 18:23:10;;;;;;;;;;;;;;;;;;5068985;28;19911;-41
2022/11/09 18:25:36;;;;;;;;;;;;;;;;;;5074709;28;19978;-41
2022/11/09 18:28:02;;;;;;;;;;;;;;;;;;5073370;28;19930;-41
2022/11/09 18:30:28;;;;;;;;;;;;;;;;;;5090413;28;20414;-41
2022/11/09 18:32:54;;;;;;;;;;;;;;;;;;5082592;28;19912;-41
2022/11/09 18:35:20;;;;;;;;;;;;;;;;;;5068558;28;19978;-41
2022/11/09 18:37:47;;;;;;;;;;;;;;;;;;5072670;28;19915;-41
2022/11/09 18:40:13;;;;;;;;;;;;;;;;;;5082235;28;19907;-41
2022/11/09 18:42:39;;;;;;;;;;;;;;;;;;5038586;28;19958;-41
2022/11/09 18:45:05;;;;;;;;;;;;;;;;;;5061592;28;19924;-41
2022/11/09 18:47:31;;;;;;;;;;;;;;;;;;5063361;28;19915;-41
2022/11/09 18:49:57;;;;;;;;;;;;;;;;;;5061847;28;20318;-41
2022/11/09 18:52:23;;;;;;;;;;;;;;;;;;5057817;28;20043;-41
2022/11/09 18:54:49;;;;;;;;;;;;;;;;;;5060613;28;19915;-42
2022/11/09 18:57:15;;;;;;;;;;;;;;;;;;5059404;28;20360;-42
2022/11/09 18:59:41;;;;;;;;;;;;;;;;;;5056588;28;19916;-42
2022/11/09 19:02:08;;;;;;;;;;;;;;;;;;5063893;28;19912;-40
2022/11/09 19:04:33;;;;;;;;;;;;;;;;;;5060346;28;19947;-42
2022/11/09 19:06:59;;;;;;;;;;;;;;;;;;5056481;28;20466;-42
2022/11/09 19:09:29;;;;;;;;;;;;;;;;;;5058817;28;20673;-42
2022/11/09 19:11:55;;;;;;;;;;;;;;;;;;5074847;28;19995;-42
2022/11/09 19:14:21;;;;;;;;;;;;;;;;;;5080577;28;20383;-42
2022/11/09 19:16:47;;;;;;;;;;;;;;;;;;5053816;28;20378;-42
2022/11/09 19:19:13;;;;;;;;;;;;;;;;;;5068130;28;19908;-43
2022/11/09 19:21:39;;;;;;;;;;;;;;;;;;5077312;28;19908;-40
2022/11/09 19:24:05;;;;;;;;;;;;;;;;;;5080411;28;19915;-40
2022/11/09 19:26:31;;;;;;;;;;;;;;;;;;5063357;28;19995;-41
2022/11/09 19:28:57;;;;;;;;;;;;;;;;;;5083325;28;20256;-41
2022/11/09 19:31:23;;;;;;;;;;;;;;;;;;5079024;28;19974;-40
2022/11/09 19:33:49;;;;;;;;;;;;;;;;;;5081365;28;19951;-40
2022/11/09 19:36:15;;;;;;;;;;;;;;;;;;5076841;28;19947;-40
2022/11/09 19:38:43;;;;;;;;;;;;;;;;;;5072584;28;19955;-40
2022/11/09 19:41:09;;;;;;;;;;;;;;;;;;5072478;28;20031;-40
2022/11/09 19:43:35;;;;;;;;;;;;;;;;;;5077780;28;19950;-40
2022/11/09 19:46:01;;;;;;;;;;;;;;;;;;5072414;28;19959;-41
2022/11/09 19:48:27;;;;;;;;;;;;;;;;;;5084465;28;19954;-41
2022/11/09 19:50:53;;;;;;;;;;;;;;;;;;5066489;28;19959;-41
2022/11/09 19:53:19;;;;;;;;;;;;;;;;;;5080003;28;19975;-41
2022/11/09 19:55:45;;;;;;;;;;;;;;;;;;5072252;28;19998;-41
2022/11/09 19:58:11;;;;;;;;;;;;;;;;;;5072868;28;19947;-41
2022/11/09 20:00:37;;;;;;;;;;;;;;;;;;5078633;28;19951;-41
2022/11/09 20:03:03;;;;;;;;;;;;;;;;;;5081099;28;19908;-40
2022/11/09 20:05:30;;;;;;;;;;;;;;;;;;5075603;28;19963;-43
2022/11/09 20:07:55;;;;;;;;;;;;;;;;;;5057812;28;20306;-40
2022/11/09 20:10:21;;;;;;;;;;;;;;;;;;5079035;28;19908;-43
2022/11/09 20:12:50;;;;;;;;;;;;;;;;;;5079235;28;20001;-41
2022/11/09 20:15:16;;;;;;;;;;;;;;;;;;5084961;28;20271;-41
2022/11/09 20:17:42;;;;;;;;;;;;;;;;;;5083026;28;20434;-42
2022/11/09 20:20:08;;;;;;;;;;;;;;;;;;5079116;28;20003;-41
2022/11/09 20:22:36;;;;;;;;;;;;;;;;;;5083946;28;20276;-41
2022/11/09 20:25:02;;;;;;;;;;;;;;;;;;5087157;28;20276;-41
2022/11/09 20:27:28;;;;;;;;;;;;;;;;;;5079323;28;19986;-42
2022/11/09 20:29:54;;;;;;;;;;;;;;;;;;5083693;28;19976;-41
2022/11/09 20:32:20;;;;;;;;;;;;;;;;;;5085835;28;19916;-41
2022/11/09 20:34:48;;;;;;;;;;;;;;;;;;5076325;28;19951;-41
2022/11/09 20:37:13;;;;;;;;;;;;;;;;;;5070777;28;20003;-41
2022/11/09 20:39:40;;;;;;;;;;;;;;;;;;5070450;28;19951;-42
2022/11/09 20:42:07;;;;;;;;;;;;;;;;;;5071150;28;19904;-41
2022/11/09 20:44:32;;;;;;;;;;;;;;;;;;5070230;28;20268;-41
2022/11/09 20:46:58;;;;;;;;;;;;;;;;;;5071037;28;19994;-41
2022/11/09 20:49:24;;;;;;;;;;;;;;;;;;5090824;28;19904;-41
2022/11/09 20:51:50;;;;;;;;;;;;;;;;;;5072383;28;19950;-41
2022/11/09 20:54:16;;;;;;;;;;;;;;;;;;5090719;28;19914;-41
2022/11/09 20:56:44;;;;;;;;;;;;;;;;;;5086792;28;19908;-41
2022/11/09 20:59:10;;;;;;;;;;;;;;;;;;5072551;28;19998;-41
2022/11/09 21:01:36;;;;;;;;;;;;;;;;;;5091055;28;19999;-41
2022/11/09 21:04:02;;;;;;;;;;;;;;;;;;5090466;28;20043;-41
2022/11/09 21:06:27;;;;;;;;;;;;;;;;;;5090573;28;19947;-41
2022/11/09 21:08:54;;;;;;;;;;;;;;;;;;5090432;28;20135;-41
2022/11/09 21:11:22;;;;;;;;;;;;;;;;;;5062730;28;19909;-41
2022/11/09 21:13:48;;;;;;;;;;;;;;;;;;5069862;28;19909;-41
2022/11/09 21:16:14;;;;;;;;;;;;;;;;;;5069628;28;19911;-41
2022/11/09 21:18:40;;;;;;;;;;;;;;;;;;5051944;28;19904;-41
2022/11/09 21:21:06;;;;;;;;;;;;;;;;;;5070681;28;19904;-41
2022/11/09 21:31:48;;;;;;;;;;;;;;;;;;5089597;28;20157;-41
2022/11/09 21:34:14;;;;;;;;;;;;;;;;;;5067117;28;20054;-41
2022/11/09 21:36:40;;;;;;;;;;;;;;;;;;5069600;28;19913;-41
2022/11/09 21:39:06;;;;;;;;;;;;;;;;;;5078253;28;19963;-41
2022/11/09 21:41:37;;;;;;;;;;;;;;;;;;5089745;28;19951;-41
2022/11/09 21:44:03;;;;;;;;;;;;;;;;;;5090114;28;20256;-41
2022/11/09 21:46:29;;;;;;;;;;;;;;;;;;5071368;28;19997;-41
2022/11/09 21:48:55;;;;;;;;;;;;;;;;;;5089716;28;19904;-41
2022/11/09 21:51:21;;;;;;;;;;;;;;;;;;5089864;28;20290;-41
2022/11/09 21:53:47;;;;;;;;;;;;;;;;;;5086380;28;20400;-41